Time;durP1;ratioP1;P1;durP2;ratioP2;P2;SDS_P1;SDS_P2;PMS_P1;PMS_P2;Temp;Humidity;BMP_temperature;BMP_pressure;BME280_temperature;BME280_humidity;BME280_pressure;Samples;Min_cycle;Max_cycle;Signal;HPM_P1;HPM_P2
2022/06/26 00:01:20;;;;;;;14.30;12.93;;;20.00;45.40;;;;;;5077967;28;20537;-54
2022/06/26 00:03:46;;;;;;;13.60;12.50;;;20.00;48.40;;;;;;5085301;28;20456;-52
2022/06/26 00:06:13;;;;;;;16.13;12.20;;;20.00;48.90;;;;;;5080638;28;20463;-52
2022/06/26 00:08:41;;;;;;;13.20;12.00;;;20.00;48.80;;;;;;5089583;28;20515;-52
2022/06/26 00:11:08;;;;;;;15.23;13.07;;;20.00;51.40;;;;;;5090424;28;20456;-53
2022/06/26 00:13:34;;;;;;;13.80;12.10;;;20.00;53.80;;;;;;5090954;28;20457;-52
2022/06/26 00:16:01;;;;;;;13.73;12.53;;;20.00;53.50;;;;;;5089426;28;20476;-53
2022/06/26 00:18:27;;;;;;;14.50;13.10;;;19.90;55.00;;;;;;5082968;28;20537;-52
2022/06/26 00:20:54;;;;;;;14.23;12.93;;;19.90;53.90;;;;;;5089824;28;20980;-52
2022/06/26 00:23:21;;;;;;;15.67;14.00;;;19.80;51.90;;;;;;5084133;28;20479;-53
2022/06/26 00:25:49;;;;;;;13.07;11.87;;;19.90;47.90;;;;;;5079544;28;20919;-53
2022/06/26 00:28:15;;;;;;;13.90;11.73;;;19.80;55.70;;;;;;5087700;28;20572;-51
2022/06/26 00:30:42;;;;;;;13.97;12.53;;;19.70;56.60;;;;;;5081470;28;20507;-53
2022/06/26 00:33:08;;;;;;;13.60;12.50;;;19.70;54.60;;;;;;5078482;28;20445;-51
2022/06/26 00:35:35;;;;;;;12.83;11.70;;;19.70;50.60;;;;;;5090267;28;20484;-52
2022/06/26 00:38:02;;;;;;;13.00;11.70;;;19.70;49.40;;;;;;5089408;28;20457;-52
2022/06/26 00:40:28;;;;;;;13.40;11.87;;;19.70;48.50;;;;;;5089380;28;20521;-52
2022/06/26 00:42:56;;;;;;;15.80;11.57;;;19.60;49.40;;;;;;5086613;28;20457;-52
2022/06/26 00:45:23;;;;;;;13.03;11.73;;;19.60;47.60;;;;;;5091579;28;20981;-52
2022/06/26 00:47:50;;;;;;;12.57;11.13;;;19.60;46.80;;;;;;5077307;28;21384;-52
2022/06/26 00:50:16;;;;;;;14.13;12.97;;;19.60;45.70;;;;;;5083376;28;20943;-52
2022/06/26 00:52:44;;;;;;;13.53;12.43;;;19.50;45.90;;;;;;5091087;28;20509;-51
2022/06/26 00:55:11;;;;;;;12.07;10.97;;;19.50;48.70;;;;;;5086717;28;20461;-52
2022/06/26 00:57:38;;;;;;;15.50;11.63;;;19.50;48.10;;;;;;5084481;28;20447;-52
2022/06/26 01:00:08;;;;;;;14.13;11.93;;;19.50;46.40;;;;;;5088783;28;20456;-52
2022/06/26 01:02:35;;;;;;;13.60;12.37;;;19.50;43.60;;;;;;5090638;28;20464;-52
2022/06/26 01:05:02;;;;;;;13.67;12.23;;;19.50;46.20;;;;;;5092866;28;20457;-51
2022/06/26 01:07:28;;;;;;;15.57;14.00;;;19.50;47.10;;;;;;5080693;28;20519;-53
2022/06/26 01:09:55;;;;;;;14.40;12.67;;;19.50;48.20;;;;;;5081840;28;20498;-52
2022/06/26 01:12:23;;;;;;;13.70;12.50;;;19.40;49.30;;;;;;5081372;28;21027;-53
2022/06/26 01:14:50;;;;;;;13.20;11.90;;;19.50;47.30;;;;;;5087709;28;20472;-52
2022/06/26 01:17:18;;;;;;;12.00;11.00;;;19.40;48.70;;;;;;5079322;28;20901;-53
2022/06/26 01:19:45;;;;;;;15.57;13.30;;;19.40;46.70;;;;;;5078992;28;20865;-51
2022/06/26 01:22:11;;;;;;;13.33;12.13;;;19.40;44.60;;;;;;5085553;28;20962;-53
2022/06/26 01:24:39;;;;;;;13.50;12.33;;;19.40;49.70;;;;;;5083281;28;20929;-53
2022/06/26 01:27:06;;;;;;;14.47;13.27;;;19.30;48.60;;;;;;5081730;28;21381;-51
2022/06/26 01:29:33;;;;;;;15.40;13.90;;;19.40;46.80;;;;;;5090204;28;20495;-52
2022/06/26 01:31:59;;;;;;;13.80;12.47;;;19.30;43.00;;;;;;5087767;28;20461;-52
2022/06/26 01:34:26;;;;;;;14.50;13.20;;;19.30;41.00;;;;;;5086504;28;20460;-53
2022/06/26 01:36:53;;;;;;;16.20;13.17;;;19.30;38.00;;;;;;5084887;28;20506;-52
2022/06/26 01:39:20;;;;;;;14.07;12.90;;;19.30;41.00;;;;;;5083938;28;20547;-52
2022/06/26 01:41:49;;;;;;;15.40;14.00;;;19.20;43.20;;;;;;5080013;28;20486;-52
2022/06/26 01:44:16;;;;;;;14.03;12.70;;;19.20;37.50;;;;;;5081945;28;20456;-53
2022/06/26 01:46:43;;;;;;;15.30;13.77;;;19.20;39.00;;;;;;5080845;28;20537;-53
2022/06/26 01:49:09;;;;;;;13.93;12.60;;;19.20;41.10;;;;;;5077665;28;20504;-53
2022/06/26 01:51:36;;;;;;;15.90;14.07;;;19.10;41.60;;;;;;5078624;28;20465;-53
2022/06/26 01:54:03;;;;;;;14.97;13.40;;;19.10;37.40;;;;;;5076880;28;20506;-53
2022/06/26 01:56:30;;;;;;;14.43;13.13;;;19.10;34.70;;;;;;5083576;28;20926;-53
2022/06/26 01:58:58;;;;;;;14.83;13.53;;;19.10;32.60;;;;;;5087476;28;20468;-52
2022/06/26 02:01:24;;;;;;;14.60;13.47;;;19.00;33.50;;;;;;5080861;28;20489;-52
2022/06/26 02:03:51;;;;;;;14.23;13.23;;;19.00;31.20;;;;;;5080974;28;20522;-51
2022/06/26 02:06:17;;;;;;;15.30;14.00;;;19.10;30.50;;;;;;5081851;28;20856;-52
2022/06/26 02:08:44;;;;;;;14.57;13.17;;;19.00;28.40;;;;;;5088699;28;20479;-52
2022/06/26 02:13:55;;;;;;;15.50;14.03;;;19.00;26.10;;;;;;5083550;28;21006;-54
2022/06/26 02:16:26;;;;;;;15.73;14.23;;;19.00;26.20;;;;;;5083336;28;20931;-52
2022/06/26 02:18:56;;;;;;;18.63;13.50;;;19.00;27.90;;;;;;5080100;28;20875;-52
2022/06/26 02:21:27;;;;;;;15.13;13.83;;;18.90;27.40;;;;;;5093468;28;20466;-52
2022/06/26 02:23:55;;;;;;;15.17;13.77;;;18.90;26.30;;;;;;5083367;28;20464;-52
2022/06/26 02:26:23;;;;;;;14.80;13.50;;;18.90;24.60;;;;;;5084721;28;20557;-53
2022/06/26 02:28:50;;;;;;;14.63;13.43;;;18.90;24.90;;;;;;5088105;28;20580;-53
2022/06/26 02:31:17;;;;;;;14.30;13.10;;;18.90;23.20;;;;;;5083317;28;20517;-53
2022/06/26 02:33:44;;;;;;;12.53;11.63;;;18.80;23.60;;;;;;5091328;28;20464;-51
2022/06/26 02:36:11;;;;;;;15.73;13.80;;;18.80;21.10;;;;;;5088751;28;20479;-51
2022/06/26 02:38:38;;;;;;;13.07;11.97;;;18.80;74.00;;;;;;5089103;28;20747;-52
2022/06/26 02:41:05;;;;;;;14.20;13.07;;;18.80;22.60;;;;;;5085442;28;20452;-51
2022/06/26 02:43:32;;;;;;;14.57;13.37;;;18.80;24.10;;;;;;5090129;28;20456;-51
2022/06/26 02:45:58;;;;;;;19.70;13.70;;;18.80;20.90;;;;;;5083029;28;20479;-53
2022/06/26 02:48:25;;;;;;;14.00;12.80;;;18.80;20.50;;;;;;5087775;28;20479;-51
2022/06/26 02:50:53;;;;;;;14.63;13.33;;;18.80;23.30;;;;;;5078675;28;20460;-51
2022/06/26 02:53:20;;;;;;;15.60;14.03;;;18.70;21.50;;;;;;5083611;28;20554;-53
2022/06/26 02:55:46;;;;;;;14.27;13.07;;;18.70;78.00;;;;;;5089320;28;20484;-52
2022/06/26 02:58:13;;;;;;;14.10;12.90;;;18.70;94.70;;;;;;5084769;28;20457;-53
2022/06/26 03:00:41;;;;;;;16.40;14.70;;;18.70;99.90;;;;;;5076815;28;20464;-53
2022/06/26 03:03:07;;;;;;;15.70;14.07;;;18.80;99.90;;;;;;5087543;28;20456;-53
2022/06/26 03:05:34;;;;;;;15.00;13.50;;;18.70;99.90;;;;;;5085650;28;20515;-52
2022/06/26 03:08:02;;;;;;;19.83;13.43;;;18.80;96.40;;;;;;5080332;28;20511;-53
2022/06/26 03:10:28;;;;;;;14.13;13.03;;;18.70;90.10;;;;;;5079597;28;20460;-50
2022/06/26 03:12:55;;;;;;;15.40;14.10;;;18.80;90.70;;;;;;5080735;28;20505;-51
2022/06/26 03:15:22;;;;;;;15.53;14.07;;;18.70;99.90;;;;;;5072822;28;20445;-51
2022/06/26 03:17:49;;;;;;;14.93;13.63;;;18.70;99.90;;;;;;5089115;28;20962;-51
2022/06/26 03:20:18;;;;;;;15.13;13.70;;;18.70;88.90;;;;;;5081942;28;20460;-52
2022/06/26 03:22:45;;;;;;;16.67;15.10;;;18.70;89.70;;;;;;5085884;28;20953;-53
2022/06/26 03:25:13;;;;;;;14.80;13.57;;;18.70;99.20;;;;;;5077261;28;20453;-53
2022/06/26 03:27:40;;;;;;;16.10;14.67;;;18.80;98.60;;;;;;5085276;28;20878;-53
2022/06/26 03:30:09;;;;;;;20.53;13.63;;;18.80;95.00;;;;;;5081399;28;20480;-51
2022/06/26 03:32:36;;;;;;;14.80;13.50;;;18.70;99.90;;;;;;5077756;28;20547;-51
2022/06/26 03:35:02;;;;;;;15.40;14.10;;;18.70;99.90;;;;;;5091134;28;20966;-52
2022/06/26 03:37:29;;;;;;;14.97;13.73;;;18.80;99.90;;;;;;5086132;28;20524;-53
2022/06/26 03:39:55;;;;;;;15.40;14.00;;;18.80;99.90;;;;;;5088976;28;20455;-53
2022/06/26 03:42:23;;;;;;;14.90;13.50;;;18.80;99.90;;;;;;5074739;28;20495;-53
2022/06/26 03:44:50;;;;;;;15.40;14.20;;;18.80;99.90;;;;;;5093771;28;20513;-52
2022/06/26 03:47:17;;;;;;;16.20;14.50;;;18.90;99.90;;;;;;5080222;28;21164;-53
2022/06/26 03:49:43;;;;;;;15.70;14.27;;;18.90;99.90;;;;;;5075804;28;20541;-52
2022/06/26 03:52:10;;;;;;;14.97;13.67;;;18.90;99.90;;;;;;5090870;28;20516;-51
2022/06/26 03:54:37;;;;;;;16.00;14.47;;;19.00;99.90;;;;;;5087268;28;20528;-53
2022/06/26 03:57:04;;;;;;;15.77;14.30;;;19.00;99.90;;;;;;5090378;28;20472;-51
2022/06/26 03:59:33;;;;;;;17.73;16.33;;;19.00;99.90;;;;;;5087532;28;20505;-53
2022/06/26 04:01:59;;;;;;;17.30;15.70;;;19.10;99.90;;;;;;5086924;28;20465;-52
2022/06/26 04:04:26;;;;;;;18.03;16.33;;;19.20;99.90;;;;;;5093087;28;20456;-52
2022/06/26 04:06:53;;;;;;;17.43;15.57;;;19.30;99.90;;;;;;5093603;28;22831;-52
2022/06/26 04:09:20;;;;;;;17.67;16.07;;;19.40;99.90;;;;;;5088859;28;20905;-53
2022/06/26 04:11:46;;;;;;;18.20;16.40;;;19.50;99.90;;;;;;5088652;28;20841;-52
2022/06/26 04:14:13;;;;;;;16.30;14.90;;;19.60;99.90;;;;;;5093473;28;20957;-52
2022/06/26 04:16:41;;;;;;;17.93;16.33;;;19.70;99.90;;;;;;5088934;28;20491;-52
2022/06/26 04:19:07;;;;;;;18.73;17.03;;;19.80;99.90;;;;;;5087134;28;20441;-52
2022/06/26 04:21:34;;;;;;;21.77;19.67;;;19.90;99.90;;;;;;5090041;28;20463;-53
2022/06/26 04:24:01;;;;;;;19.83;18.00;;;20.10;99.90;;;;;;5090337;28;20456;-52
2022/06/26 04:26:28;;;;;;;19.43;17.43;;;20.20;99.90;;;;;;5077734;28;20460;-54
2022/06/26 04:28:54;;;;;;;24.03;18.77;;;20.30;99.90;;;;;;5081241;28;20476;-53
2022/06/26 04:31:21;;;;;;;20.57;18.70;;;20.40;99.90;;;;;;5086244;28;20521;-52
2022/06/26 04:33:49;;;;;;;18.50;17.00;;;20.60;99.90;;;;;;5077543;28;20445;-52
2022/06/26 04:36:15;;;;;;;19.70;16.40;;;20.70;99.90;;;;;;5088103;28;20520;-53
2022/06/26 04:38:42;;;;;;;18.70;16.93;;;20.80;99.90;;;;;;5086461;28;20487;-52
2022/06/26 04:43:53;;;;;;;18.97;17.40;;;21.00;56.60;;;;;;5088306;28;20605;-52
2022/06/26 04:46:19;;;;;;;20.50;16.50;;;21.10;88.50;;;;;;5086501;28;20557;-52
2022/06/26 04:48:46;;;;;;;17.30;15.50;;;21.10;99.90;;;;;;5083695;28;20481;-53
2022/06/26 04:51:14;;;;;;;17.67;15.97;;;21.20;99.90;;;;;;5078105;28;20521;-53
2022/06/26 04:53:41;;;;;;;19.27;17.43;;;21.20;99.90;;;;;;5082450;28;20436;-52
2022/06/26 04:56:07;;;;;;;17.67;15.80;;;21.30;99.90;;;;;;5099283;28;20536;-53
2022/06/26 04:58:34;;;;;;;17.80;16.27;;;21.40;99.90;;;;;;5092452;28;20906;-52
2022/06/26 05:01:02;;;;;;;18.87;16.97;;;21.40;99.90;;;;;;5084240;28;20935;-53
2022/06/26 05:03:28;;;;;;;16.90;15.40;;;21.40;99.90;;;;;;5078396;28;20445;-53
2022/06/26 05:05:55;;;;;;;18.30;16.50;;;21.40;99.90;;;;;;5088924;28;20502;-53
2022/06/26 05:08:23;;;;;;;17.43;15.73;;;21.50;99.90;;;;;;5078376;28;20946;-54
2022/06/26 05:10:50;;;;;;;16.97;15.57;;;21.50;99.90;;;;;;5088058;28;20492;-53
2022/06/26 05:13:16;;;;;;;18.67;16.60;;;21.50;99.90;;;;;;5091169;28;20513;-53
2022/06/26 05:15:43;;;;;;;18.40;16.53;;;21.60;99.90;;;;;;5084686;28;21009;-53
2022/06/26 05:18:10;;;;;;;17.90;16.10;;;21.60;99.90;;;;;;5092606;28;20538;-51
2022/06/26 05:20:36;;;;;;;19.30;17.50;;;21.60;99.90;;;;;;5086908;28;20473;-53
2022/06/26 05:23:03;;;;;;;19.07;17.10;;;21.60;99.90;;;;;;5089105;28;20487;-51
2022/06/26 05:25:31;;;;;;;18.23;16.40;;;21.60;99.90;;;;;;5082988;28;20537;-54
2022/06/26 05:27:58;;;;;;;22.13;16.53;;;21.60;99.90;;;;;;5089881;28;20464;-53
2022/06/26 05:30:25;;;;;;;18.40;16.43;;;21.60;99.90;;;;;;5075242;28;20484;-53
2022/06/26 05:32:52;;;;;;;18.87;16.90;;;21.70;99.90;;;;;;5090304;28;20456;-53
2022/06/26 05:35:18;;;;;;;17.40;15.63;;;21.70;99.90;;;;;;5092370;28;21026;-53
2022/06/26 05:37:45;;;;;;;17.37;15.60;;;21.80;99.90;;;;;;5078961;28;20484;-53
2022/06/26 05:40:12;;;;;;;19.60;17.27;;;21.80;99.90;;;;;;5076705;28;20459;-52
2022/06/26 05:42:40;;;;;;;17.33;15.70;;;21.80;99.90;;;;;;5078913;28;20464;-52
2022/06/26 05:45:08;;;;;;;16.40;15.00;;;21.90;99.90;;;;;;5087994;28;20825;-53
2022/06/26 05:47:34;;;;;;;19.47;16.63;;;21.90;99.90;;;;;;5087860;28;21018;-53
2022/06/26 05:50:01;;;;;;;19.00;16.10;;;22.00;99.90;;;;;;5084158;28;20476;-53
2022/06/26 05:52:28;;;;;;;17.73;15.90;;;22.00;99.90;;;;;;5075450;28;20469;-53
2022/06/26 05:54:55;;;;;;;20.57;16.83;;;22.10;99.90;;;;;;5078329;28;20519;-53
2022/06/26 05:57:21;;;;;;;20.17;18.37;;;22.10;99.90;;;;;;5083678;28;20545;-51
2022/06/26 05:59:49;;;;;;;17.10;15.60;;;22.10;99.90;;;;;;5089234;28;20511;-53
2022/06/26 06:02:16;;;;;;;19.70;16.50;;;22.10;99.90;;;;;;5076513;28;20485;-53
2022/06/26 06:04:42;;;;;;;19.83;18.00;;;22.20;99.90;;;;;;5080943;28;20513;-53
2022/06/26 06:07:09;;;;;;;18.13;16.53;;;22.20;99.90;;;;;;5081458;28;20461;-52
2022/06/26 06:09:35;;;;;;;20.13;18.17;;;22.20;99.90;;;;;;5076238;28;20476;-53
2022/06/26 06:12:02;;;;;;;17.40;15.90;;;22.30;99.90;;;;;;5080984;28;20511;-52
2022/06/26 06:14:29;;;;;;;18.00;16.40;;;22.30;99.90;;;;;;5074930;28;20464;-52
2022/06/26 06:16:57;;;;;;;16.80;15.20;;;22.40;99.90;;;;;;5085409;28;20897;-53
2022/06/26 06:19:23;;;;;;;18.60;17.00;;;22.50;99.90;;;;;;5075724;28;20495;-52
2022/06/26 06:21:50;;;;;;;15.40;14.00;;;22.60;99.90;;;;;;5084536;28;20441;-54
2022/06/26 06:24:17;;;;;;;13.90;12.70;;;22.80;25.80;;;;;;5084285;28;20468;-52
2022/06/26 06:26:43;;;;;;;15.73;13.00;;;22.80;44.30;;;;;;5083794;28;20468;-53
2022/06/26 06:29:10;;;;;;;12.93;11.87;;;23.00;59.60;;;;;;5079879;28;20884;-53
2022/06/26 06:31:36;;;;;;;16.60;12.60;;;23.10;92.30;;;;;;5085856;28;20884;-52
2022/06/26 06:34:04;;;;;;;13.73;12.63;;;23.20;99.90;;;;;;5084981;28;20815;-52
2022/06/26 06:36:31;;;;;;;14.53;13.17;;;23.40;99.90;;;;;;5079222;28;20472;-53
2022/06/26 06:38:57;;;;;;;12.33;11.30;;;23.50;99.90;;;;;;5077676;28;20469;-52
2022/06/26 06:41:24;;;;;;;16.43;13.27;;;23.60;99.90;;;;;;5080225;28;20456;-53
2022/06/26 06:43:50;;;;;;;14.97;13.50;;;23.70;99.90;;;;;;5086935;28;20452;-51
2022/06/26 06:46:17;;;;;;;14.47;13.17;;;23.80;99.90;;;;;;5087105;28;20480;-53
2022/06/26 06:48:43;;;;;;;16.90;13.67;;;23.80;99.90;;;;;;5081617;28;20488;-51
2022/06/26 06:51:11;;;;;;;14.73;13.43;;;23.80;99.90;;;;;;5077540;28;20570;-52
2022/06/26 06:53:38;;;;;;;15.50;14.07;;;23.80;99.90;;;;;;5077833;28;20533;-52
2022/06/26 06:56:05;;;;;;;15.03;13.63;;;23.80;99.90;;;;;;5082465;28;20485;-53
2022/06/26 06:58:31;;;;;;;14.67;13.37;;;23.80;99.90;;;;;;5080446;28;20456;-53
2022/06/26 07:00:58;;;;;;;15.10;13.93;;;23.80;99.90;;;;;;5083933;28;20540;-53
2022/06/26 07:03:24;;;;;;;15.00;13.67;;;23.80;99.90;;;;;;5087559;28;20518;-53
2022/06/26 07:05:51;;;;;;;15.40;13.80;;;23.80;99.90;;;;;;5082835;28;20488;-52
2022/06/26 07:08:19;;;;;;;15.17;13.37;;;23.80;99.90;;;;;;5087373;28;20870;-52
2022/06/26 07:10:46;;;;;;;13.53;12.33;;;23.80;99.90;;;;;;5079178;28;20525;-52
2022/06/26 07:13:12;;;;;;;11.87;10.77;;;23.90;99.90;;;;;;5076595;28;20468;-51
2022/06/26 07:15:39;;;;;;;10.97;10.17;;;23.90;99.90;;;;;;5087107;28;20476;-52
2022/06/26 07:18:06;;;;;;;10.47;9.57;;;24.00;99.90;;;;;;5080315;28;20445;-52
2022/06/26 07:20:32;;;;;;;10.30;9.30;;;24.10;99.90;;;;;;5090054;28;21422;-52
2022/06/26 07:22:59;;;;;;;9.93;9.10;;;24.30;99.90;;;;;;5085264;28;20491;-51
2022/06/26 07:25:27;;;;;;;8.67;8.07;;;24.30;99.90;;;;;;5078484;28;20543;-53
2022/06/26 07:27:54;;;;;;;9.53;8.70;;;24.50;99.90;;;;;;5086890;28;20456;-52
2022/06/26 07:30:21;;;;;;;10.13;9.13;;;24.50;99.90;;;;;;5086213;28;21006;-53
2022/06/26 07:32:47;;;;;;;10.47;9.50;;;24.60;99.90;;;;;;5087022;28;20466;-53
2022/06/26 07:35:14;;;;;;;8.47;7.70;;;24.60;99.90;;;;;;5080564;28;20496;-52
2022/06/26 07:37:41;;;;;;;10.37;7.90;;;24.70;99.90;;;;;;5088060;28;20529;-53
2022/06/26 07:40:09;;;;;;;8.77;7.93;;;24.80;28.10;;;;;;5076647;28;20453;-52
2022/06/26 07:42:37;;;;;;;8.33;7.40;;;24.80;99.90;;;;;;5081968;28;20496;-52
2022/06/26 07:45:04;;;;;;;7.87;7.17;;;24.90;99.90;;;;;;5082736;28;20974;-52
2022/06/26 07:47:31;;;;;;;7.40;6.70;;;24.90;30.20;;;;;;5081418;28;20914;-53
2022/06/26 07:49:58;;;;;;;7.60;7.07;;;25.00;52.00;;;;;;5086141;28;20556;-53
2022/06/26 07:52:24;;;;;;;7.80;7.27;;;25.10;56.40;;;;;;5086751;28;20525;-53
2022/06/26 07:54:51;;;;;;;7.70;7.00;;;25.10;54.40;;;;;;5086911;28;20572;-51
2022/06/26 07:57:19;;;;;;;9.23;7.70;;;25.20;63.20;;;;;;5083582;28;22391;-53
2022/06/26 07:59:47;;;;;;;8.50;7.43;;;25.30;58.00;;;;;;5085886;28;20448;-51
2022/06/26 08:02:14;;;;;;;6.93;6.47;;;25.40;79.10;;;;;;5087658;28;20462;-53
2022/06/26 08:04:40;;;;;;;8.13;7.43;;;25.40;79.10;;;;;;5091520;28;20460;-51
2022/06/26 08:07:07;;;;;;;7.53;7.03;;;25.50;78.60;;;;;;5092390;28;20476;-54
2022/06/26 08:09:34;;;;;;;6.73;6.13;;;25.50;79.30;;;;;;5084917;28;20507;-54
2022/06/26 08:12:00;;;;;;;8.87;7.00;;;25.60;80.20;;;;;;5074872;28;20488;-53
2022/06/26 08:14:27;;;;;;;7.70;7.20;;;25.70;81.20;;;;;;5076491;28;20484;-54
2022/06/26 08:16:55;;;;;;;8.00;7.33;;;25.90;81.20;;;;;;5084553;28;20476;-53
2022/06/26 08:19:21;;;;;;;6.47;6.07;;;26.00;91.90;;;;;;5086603;28;20516;-53
2022/06/26 08:22:03;;;;;;;7.63;7.13;;;26.10;92.40;;;;;;5088385;28;20588;-54
2022/06/26 08:24:31;;;;;;;6.87;6.37;;;26.20;93.70;;;;;;5091846;28;20463;-53
2022/06/26 08:26:58;;;;;;;7.67;7.00;;;26.20;94.80;;;;;;5085142;28;20552;-52
2022/06/26 08:29:25;;;;;;;6.67;6.00;;;26.30;91.00;;;;;;5083405;28;20916;-53
2022/06/26 08:31:52;;;;;;;6.70;6.30;;;26.40;99.90;;;;;;5086185;28;20891;-52
2022/06/26 08:34:20;;;;;;;7.30;6.60;;;26.60;99.90;;;;;;5090284;28;20464;-54
2022/06/26 08:36:47;;;;;;;7.03;6.43;;;26.70;99.90;;;;;;5081416;28;20480;-53
2022/06/26 08:39:14;;;;;;;7.03;6.53;;;26.70;99.90;;;;;;5082550;28;20489;-54
2022/06/26 08:41:43;;;;;;;8.43;6.77;;;26.80;99.90;;;;;;5085630;28;21236;-53
2022/06/26 08:44:10;;;;;;;6.50;6.10;;;26.80;99.90;;;;;;5086326;28;21164;-55
2022/06/26 08:46:40;;;;;;;6.77;6.17;;;26.90;99.90;;;;;;5079033;28;20512;-54
2022/06/26 08:49:10;;;;;;;8.50;6.93;;;26.90;99.90;;;;;;5084244;28;20472;-53
2022/06/26 08:51:40;;;;;;;7.07;6.43;;;26.90;99.90;;;;;;5087038;28;20997;-53
2022/06/26 08:54:09;;;;;;;6.73;6.20;;;26.90;99.90;;;;;;5088971;28;20537;-53
2022/06/26 08:56:36;;;;;;;7.20;6.50;;;26.90;99.90;;;;;;5084795;28;21089;-53
2022/06/26 08:59:03;;;;;;;6.83;5.37;;;27.10;99.90;;;;;;5081085;28;21054;-52
2022/06/26 09:01:30;;;;;;;5.23;4.87;;;27.30;99.90;;;;;;5090677;28;20461;-53
2022/06/26 09:03:56;;;;;;;14.00;5.70;;;27.40;99.90;;;;;;5089276;28;20460;-53
2022/06/26 09:06:23;;;;;;;5.97;5.37;;;27.60;99.90;;;;;;5092679;28;20973;-51
2022/06/26 09:08:51;;;;;;;6.00;5.60;;;27.80;99.90;;;;;;5087680;28;20462;-53
2022/06/26 09:11:18;;;;;;;7.40;5.30;;;28.00;99.90;;;;;;5083653;28;20557;-53
2022/06/26 09:13:46;;;;;;;5.30;4.80;;;28.10;99.90;;;;;;5086131;28;20541;-53
2022/06/26 09:16:14;;;;;;;5.63;5.20;;;28.20;99.90;;;;;;5085771;28;20488;-53
2022/06/26 09:18:42;;;;;;;4.80;4.40;;;28.20;99.90;;;;;;5090711;28;20541;-53
2022/06/26 09:21:10;;;;;;;4.77;4.20;;;28.00;99.90;;;;;;5087829;28;20529;-53
2022/06/26 09:23:39;;;;;;;4.47;4.17;;;27.80;99.90;;;;;;5083827;28;20879;-52
2022/06/26 09:26:07;;;;;;;5.00;4.50;;;27.90;99.90;;;;;;5084674;28;20483;-52
2022/06/26 09:28:34;;;;;;;5.50;5.03;;;28.00;99.90;;;;;;5085873;28;20492;-51
2022/06/26 09:31:02;;;;;;;5.63;4.80;;;28.10;99.90;;;;;;5082881;28;20535;-53
2022/06/26 09:33:30;;;;;;;4.37;4.17;;;28.00;99.90;;;;;;5085094;28;21277;-51
2022/06/26 09:35:58;;;;;;;6.37;5.80;;;28.00;99.90;;;;;;5083181;28;20516;-52
2022/06/26 09:38:26;;;;;;;6.93;5.40;;;28.20;99.90;;;;;;5083927;28;20545;-53
2022/06/26 09:40:54;;;;;;;3.70;3.53;;;28.40;99.90;;;;;;5083295;28;20781;-52
2022/06/26 09:43:30;;;;;;;4.80;4.17;;;28.60;99.90;;;;;;5082292;28;20456;-52
2022/06/26 09:45:59;;;;;;;4.37;3.97;;;28.60;99.90;;;;;;5088671;28;20516;-52
2022/06/26 09:48:26;;;;;;;4.50;3.97;;;28.50;99.90;;;;;;5082761;28;20649;-53
2022/06/26 09:50:54;;;;;;;4.60;3.40;;;28.40;99.90;;;;;;5088004;28;20516;-53
2022/06/26 09:53:22;;;;;;;5.27;3.97;;;28.40;99.90;;;;;;5082002;28;20480;-52
2022/06/26 09:55:50;;;;;;;4.00;3.80;;;28.30;99.90;;;;;;5086077;28;21009;-52
2022/06/26 09:58:17;;;;;;;4.00;3.80;;;28.20;1.40;;;;;;5088592;28;20814;-52
2022/06/26 10:06:25;;;;;;;3.80;3.60;;;28.10;99.90;;;;;;5083521;28;20498;-52
2022/06/26 10:06:27;;;;;;;9.20;4.30;;;28.20;99.90;;;;;;5082154;28;20471;-53
2022/06/26 10:08:55;;;;;;;6.03;3.80;;;28.60;99.90;;;;;;5087060;28;20995;-52
2022/06/26 10:11:23;;;;;;;6.10;4.23;;;28.60;99.90;;;;;;5081256;28;20484;-52
2022/06/26 10:13:51;;;;;;;4.47;4.07;;;28.70;99.90;;;;;;5087178;28;20456;-52
2022/06/26 10:16:36;;;;;;;4.77;4.40;;;28.60;99.90;;;;;;5089425;28;20512;-53
2022/06/26 10:19:15;;;;;;;3.90;3.63;;;28.50;1.40;;;;;;5086432;28;21004;-52
2022/06/26 10:21:43;;;;;;;8.27;3.83;;;28.50;99.90;;;;;;5078208;28;20478;-52
2022/06/26 10:24:09;;;;;;;3.97;3.60;;;28.40;99.90;;;;;;5082801;28;20972;-54
2022/06/26 10:26:36;;;;;;;4.03;3.83;;;28.40;99.90;;;;;;5082234;28;20484;-52
2022/06/26 10:29:05;;;;;;;4.73;4.33;;;28.40;99.90;;;;;;5083038;28;20513;-52
2022/06/26 10:31:46;;;;;;;8.50;3.93;;;28.40;99.90;;;;;;5083285;28;20476;-52
2022/06/26 10:34:16;;;;;;;4.00;3.80;;;28.50;99.90;;;;;;5081708;28;20463;-53
2022/06/26 10:36:42;;;;;;;4.90;4.50;;;28.50;99.90;;;;;;5085696;28;21001;-54
2022/06/26 10:39:09;;;;;;;6.70;5.00;;;28.50;99.90;;;;;;5082325;28;20526;-53
2022/06/26 10:44:34;;;;;;;4.67;4.37;;;28.30;99.90;;;;;;5077744;28;20452;-53
2022/06/26 10:47:01;;;;;;;4.20;4.00;;;28.30;99.90;;;;;;5082169;28;20526;-53
2022/06/26 10:49:28;;;;;;;5.40;4.90;;;28.20;99.90;;;;;;5080722;28;20461;-52
2022/06/26 10:51:55;;;;;;;5.50;5.13;;;28.30;99.90;;;;;;5077801;28;20569;-53
2022/06/26 10:54:23;;;;;;;5.53;5.20;;;28.30;99.90;;;;;;5084134;28;20460;-53
2022/06/26 10:57:05;;;;;;;5.50;5.00;;;28.40;99.90;;;;;;5086478;28;20556;-52
2022/06/26 10:59:31;;;;;;;5.50;5.13;;;28.50;99.90;;;;;;5077327;28;20464;-53
2022/06/26 11:01:58;;;;;;;5.37;4.67;;;28.60;99.90;;;;;;5082813;28;20901;-51
2022/06/26 11:04:26;;;;;;;5.30;4.87;;;28.90;99.90;;;;;;5085771;28;20456;-52
2022/06/26 11:06:53;;;;;;;4.17;3.97;;;29.00;99.90;;;;;;5071749;28;20453;-53
2022/06/26 11:09:20;;;;;;;4.00;3.70;;;29.20;99.90;;;;;;5082873;28;20472;-54
2022/06/26 11:11:51;;;;;;;4.67;4.27;;;29.20;99.90;;;;;;5079431;28;20846;-52
2022/06/26 11:14:18;;;;;;;4.40;4.00;;;29.30;99.90;;;;;;5086885;28;20462;-52
2022/06/26 11:16:46;;;;;;;6.43;4.27;;;29.20;99.90;;;;;;5081096;28;20488;-52
2022/06/26 11:19:23;;;;;;;4.10;3.60;;;29.30;99.90;;;;;;5084050;28;20461;-52
2022/06/26 11:22:05;;;;;;;4.23;4.03;;;29.40;99.90;;;;;;5090002;28;20537;-52
2022/06/26 11:24:32;;;;;;;4.20;4.00;;;29.30;99.90;;;;;;5089225;28;20456;-52
2022/06/26 11:26:59;;;;;;;4.30;4.00;;;29.30;99.90;;;;;;5085718;28;20997;-52
2022/06/26 11:29:26;;;;;;;4.00;3.80;;;29.40;99.90;;;;;;5077551;28;20522;-53
2022/06/26 11:31:54;;;;;;;4.33;3.50;;;29.40;99.90;;;;;;5083710;28;21162;-52
2022/06/26 11:34:21;;;;;;;4.47;4.20;;;29.50;99.90;;;;;;5082502;28;20465;-54
2022/06/26 11:36:52;;;;;;;4.40;4.10;;;29.70;99.90;;;;;;5082977;28;20482;-51
2022/06/26 11:39:19;;;;;;;4.07;3.80;;;29.80;99.90;;;;;;5083632;28;21007;-51
2022/06/26 11:41:47;;;;;;;4.17;3.90;;;29.90;99.90;;;;;;5089399;28;20941;-52
2022/06/26 11:44:14;;;;;;;3.40;3.10;;;29.50;99.90;;;;;;5084320;28;20464;-52
2022/06/26 11:46:41;;;;;;;4.33;3.90;;;29.50;99.90;;;;;;5077927;28;20558;-54
2022/06/26 11:49:10;;;;;;;4.10;3.57;;;29.50;99.90;;;;;;5083624;28;20542;-52
2022/06/26 11:51:38;;;;;;;4.07;3.70;;;29.30;99.90;;;;;;5081905;28;20480;-53
2022/06/26 11:54:06;;;;;;;4.00;3.90;;;29.00;99.90;;;;;;5090177;28;20466;-54
2022/06/26 11:56:33;;;;;;;5.17;3.80;;;28.80;99.90;;;;;;5083032;28;21083;-52
2022/06/26 11:59:00;;;;;;;4.63;4.23;;;28.90;99.90;;;;;;5088528;28;20517;-53
2022/06/26 12:01:31;;;;;;;3.67;3.47;;;29.10;99.90;;;;;;5082970;28;20456;-53
2022/06/26 12:03:58;;;;;;;4.07;3.80;;;29.30;99.90;;;;;;5081706;28;20804;-53
2022/06/26 12:06:34;;;;;;;5.00;4.50;;;29.60;99.90;;;;;;5083888;28;20480;-52
2022/06/26 12:09:02;;;;;;;4.30;4.10;;;30.00;99.90;;;;;;5086472;28;20506;-52
2022/06/26 12:11:41;;;;;;;4.33;4.13;;;30.20;99.90;;;;;;5085825;28;20475;-53
2022/06/26 12:14:11;;;;;;;5.20;4.90;;;30.30;99.90;;;;;;5074490;28;20433;-53
2022/06/26 12:16:45;;;;;;;4.37;4.00;;;30.20;99.90;;;;;;5084358;28;20560;-53
2022/06/26 12:19:11;;;;;;;3.67;3.47;;;30.10;99.90;;;;;;5089882;28;20456;-53
2022/06/26 12:21:38;;;;;;;3.93;3.60;;;30.10;99.90;;;;;;5086463;28;20456;-53
2022/06/26 12:24:11;;;;;;;4.27;4.07;;;30.30;99.90;;;;;;5081784;28;20543;-53
2022/06/26 12:26:41;;;;;;;4.60;4.23;;;30.40;99.90;;;;;;5082772;28;20561;-52
2022/06/26 12:29:10;;;;;;;4.97;4.07;;;30.60;99.90;;;;;;5084775;28;20478;-53
2022/06/26 12:31:37;;;;;;;3.97;3.77;;;30.60;99.90;;;;;;5085384;28;21005;-54
2022/06/26 12:34:04;;;;;;;7.50;3.97;;;30.70;99.90;;;;;;5092754;28;20445;-53
2022/06/26 12:36:31;;;;;;;5.50;3.90;;;30.50;99.90;;;;;;5083266;28;20521;-54
2022/06/26 12:38:58;;;;;;;3.20;3.10;;;30.50;99.90;;;;;;5085863;28;20467;-54
2022/06/26 12:41:25;;;;;;;5.83;3.53;;;30.70;99.90;;;;;;5087039;28;20454;-53
2022/06/26 12:43:55;;;;;;;4.03;3.63;;;30.70;99.90;;;;;;5085810;28;20565;-53
2022/06/26 12:46:22;;;;;;;4.03;3.83;;;30.90;99.90;;;;;;5085989;28;20576;-53
2022/06/26 12:48:50;;;;;;;3.47;3.27;;;31.00;99.90;;;;;;5090064;28;20440;-53